ハルビン の空港の天気 - METARとTAF

ハルビン太平国際空港 ( ZYHB / HRB ) - 中国 黒竜江省ハルビン市
飛行場実況気象(Metar)
観測時間01/18 17:00 CST (01/18 09:00 UTC)
風向・風速北東 1m/s
視程6000m
天気現象
なし
気温-17℃
湿度71%
気圧1021hPa
METARZYHB 180900Z 04001MPS 6000 NSC M17/M21 Q1021 NOSIG
過去の天気等 Google飛行場航空写真 Wunderground天気予報

過去48時間のMETAR

飛行場予報(TAF)
発表時間: 1/18 11:01 CST (1/18 03:01 UTC)
予報対象時間: 18日14時 CST ~ 19日14時 CST
風向・風速南南西 4m/s
視程5,000m
天気現象もや
全天の8割程度の雲 雲底高度 910m
TAF ZYHB 180301Z 1806/1906 21004MPS 5000 BR BKN030 TXM11/06Z TNM22/21Z